createdAt,value
2023-05-13T00:04:15.238Z,101078.41
2023-05-13T00:09:19.031Z,101090.44
2023-05-13T00:11:47.413Z,101087.72
2023-05-13T00:14:17.089Z,101087.72
2023-05-13T00:19:27.350Z,101098.22
2023-05-13T00:21:55.715Z,101103.34
2023-05-13T00:24:23.939Z,101102.41
2023-05-13T00:26:52.784Z,101106.66
2023-05-13T00:29:21.254Z,101099.72
2023-05-13T00:31:49.634Z,101094.44
2023-05-13T00:36:59.152Z,101102.31
2023-05-13T00:39:27.339Z,101101.38
2023-05-13T00:49:55.226Z,101086.72
2023-05-13T00:52:23.142Z,101098.81
2023-05-13T01:05:32.500Z,101103.75
2023-05-13T01:08:09.301Z,101108.09
2023-05-13T01:10:44.799Z,101106.47
2023-05-13T01:13:14.097Z,101098.75
2023-05-13T01:15:45.572Z,101097.91
2023-05-13T01:18:25.102Z,101099.50
2023-05-13T01:20:53.598Z,101099.25
2023-05-13T01:23:22.694Z,101095.69
2023-05-13T01:25:50.673Z,101091.22
2023-05-13T01:28:18.540Z,101084.19
2023-05-13T01:30:46.260Z,101087.63
2023-05-13T01:33:13.725Z,101083.13
2023-05-13T01:35:41.672Z,101087.41
2023-05-13T01:38:09.533Z,101082.19
2023-05-13T01:40:38.002Z,101090.78
2023-05-13T01:43:05.903Z,101085.47
2023-05-13T01:45:33.915Z,101090.59
2023-05-13T01:48:01.838Z,101090.66
2023-05-13T01:50:29.321Z,101086.38
2023-05-13T01:52:57.402Z,101082.81
2023-05-13T01:55:25.315Z,101083.59
2023-05-13T01:57:52.741Z,101092.16
2023-05-13T02:00:21.038Z,101091.13
2023-05-13T02:02:48.812Z,101087.28
2023-05-13T02:05:19.888Z,101081.75
2023-05-13T02:07:48.245Z,101084.09
2023-05-13T02:10:16.270Z,101077.09
2023-05-13T02:12:45.135Z,101069.34
2023-05-13T02:15:12.640Z,101074.44
2023-05-13T02:17:40.482Z,101073.47
2023-05-13T02:20:11.204Z,101074.84
2023-05-13T02:22:38.958Z,101073.00
2023-05-13T02:25:08.695Z,101079.03
2023-05-13T02:27:36.644Z,101084.22
2023-05-13T02:30:05.181Z,101073.13
2023-05-13T02:32:33.449Z,101077.53
2023-05-13T02:35:01.024Z,101072.31
2023-05-13T02:37:28.952Z,101081.63
2023-05-13T02:39:57.022Z,101081.38
2023-05-13T02:42:24.870Z,101076.94
2023-05-13T02:44:52.837Z,101078.63
2023-05-13T02:47:20.593Z,101088.88
2023-05-13T02:49:48.832Z,101088.00
2023-05-13T02:52:16.796Z,101088.13
2023-05-13T02:54:44.752Z,101077.97
2023-05-13T02:57:12.665Z,101077.25
2023-05-13T02:59:40.253Z,101077.31
2023-05-13T03:02:08.640Z,101071.22
2023-05-13T03:04:36.604Z,101068.50
2023-05-13T03:07:04.736Z,101067.69
2023-05-13T03:09:35.296Z,101065.94
2023-05-13T03:12:02.086Z,101068.50
2023-05-13T03:14:30.101Z,101067.69
2023-05-13T03:16:57.678Z,101079.03
2023-05-13T03:19:26.002Z,101071.25
2023-05-13T03:21:53.891Z,101072.94
2023-05-13T03:24:21.370Z,101075.50
2023-05-13T03:26:49.206Z,101081.44
2023-05-13T03:29:17.169Z,101087.38
2023-05-13T03:31:45.007Z,101083.69
2023-05-13T03:34:12.957Z,101088.00
2023-05-13T03:36:40.581Z,101090.47
2023-05-13T03:39:08.681Z,101095.13
2023-05-13T03:41:36.576Z,101090.72
2023-05-13T03:44:04.337Z,101091.78
2023-05-13T03:46:32.309Z,101092.41
2023-05-13T03:49:00.234Z,101090.00
2023-05-13T03:51:28.305Z,101097.84
2023-05-13T03:53:56.475Z,101108.13
2023-05-13T03:56:24.319Z,101101.41
2023-05-13T03:58:52.060Z,101103.03
2023-05-13T04:01:19.544Z,101113.34
2023-05-13T04:03:47.525Z,101109.56
2023-05-13T04:06:15.479Z,101111.09
2023-05-13T04:08:43.861Z,101110.22
2023-05-13T04:11:11.785Z,101110.91
2023-05-13T04:13:39.262Z,101116.06
2023-05-13T04:16:06.999Z,101121.22
2023-05-13T04:18:34.786Z,101124.81
2023-05-13T04:21:09.240Z,101123.16
2023-05-13T04:23:37.088Z,101129.06
2023-05-13T04:26:04.999Z,101133.41
2023-05-13T04:28:33.351Z,101142.97
2023-05-13T04:31:02.680Z,101142.84
2023-05-13T04:33:30.602Z,101146.97
2023-05-13T04:35:58.641Z,101155.75
2023-05-13T04:38:26.630Z,101159.38
2023-05-13T04:40:54.450Z,101160.41
2023-05-13T04:43:22.579Z,101158.00
2023-05-13T04:45:50.063Z,101166.84
2023-05-13T04:48:17.870Z,101166.13
2023-05-13T04:50:48.310Z,101184.28
2023-05-13T04:53:16.386Z,101180.06
2023-05-13T04:55:44.178Z,101183.47
2023-05-13T04:58:11.621Z,101190.56
2023-05-13T05:00:39.475Z,101194.13
2023-05-13T05:03:07.325Z,101194.97
2023-05-13T05:05:34.958Z,101199.47
2023-05-13T05:10:39.034Z,101201.22
2023-05-13T05:13:07.492Z,101204.94
2023-05-13T05:15:35.381Z,101212.75
2023-05-13T05:18:03.047Z,101209.53
2023-05-13T05:20:30.966Z,101213.91
2023-05-13T05:22:58.427Z,101209.00
2023-05-13T05:25:27.233Z,101213.53
2023-05-13T05:27:54.908Z,101212.88
2023-05-13T05:30:22.684Z,101211.63
2023-05-13T05:32:50.950Z,101209.28
2023-05-13T05:35:19.883Z,101212.84
2023-05-13T05:37:47.933Z,101214.78
2023-05-13T05:40:15.551Z,101220.19
2023-05-13T05:42:43.321Z,101219.41
2023-05-13T05:45:12.628Z,101220.41
2023-05-13T05:47:40.906Z,101221.34
2023-05-13T05:50:10.438Z,101228.22
2023-05-13T05:52:38.350Z,101224.03
2023-05-13T05:55:08.092Z,101224.09
2023-05-13T05:57:35.641Z,101226.72
2023-05-13T06:00:04.985Z,101225.91
2023-05-13T06:02:32.996Z,101228.59
2023-05-13T06:05:00.698Z,101237.28
2023-05-13T06:07:28.797Z,101234.81
2023-05-13T06:10:08.264Z,101237.59
2023-05-13T06:12:37.024Z,101238.84
2023-05-13T06:15:06.937Z,101238.97
2023-05-13T06:17:35.089Z,101237.50
2023-05-13T06:20:02.603Z,101245.38
2023-05-13T06:22:30.785Z,101242.78
2023-05-13T06:24:59.033Z,101235.00
2023-05-13T06:27:26.904Z,101235.88
2023-05-13T06:29:54.764Z,101239.38
2023-05-13T06:32:22.657Z,101228.09
2023-05-13T06:34:53.532Z,101228.03
2023-05-13T06:37:23.115Z,101230.63
2023-05-13T06:39:51.320Z,101233.28
2023-05-13T06:42:18.814Z,101233.31
2023-05-13T06:44:46.717Z,101225.50
2023-05-13T06:47:16.225Z,101227.31
2023-05-13T06:49:43.497Z,101236.13
2023-05-13T06:52:10.593Z,101242.16
2023-05-13T06:54:38.100Z,101242.19
2023-05-13T06:57:07.464Z,101243.88
2023-05-13T06:59:36.559Z,101235.41
2023-05-13T07:02:04.693Z,101242.31
2023-05-13T07:04:33.143Z,101230.97
2023-05-13T07:07:00.538Z,101235.41
2023-05-13T07:09:28.592Z,101236.44
2023-05-13T07:11:55.780Z,101234.75
2023-05-13T07:14:25.132Z,101232.25
2023-05-13T07:16:53.286Z,101233.22
2023-05-13T07:19:21.241Z,101230.81
2023-05-13T07:21:49.534Z,101233.44
2023-05-13T07:24:16.982Z,101240.50
2023-05-13T07:26:45.222Z,101234.44
2023-05-13T07:29:13.150Z,101233.59
2023-05-13T07:31:41.470Z,101238.03
2023-05-13T07:34:09.407Z,101242.44
2023-05-13T07:36:37.451Z,101245.13
2023-05-13T07:39:05.081Z,101241.69
2023-05-13T07:41:32.662Z,101240.97
2023-05-13T07:44:00.604Z,101239.41
2023-05-13T07:46:28.481Z,101234.31
2023-05-13T07:48:56.040Z,101240.63
2023-05-13T07:51:24.073Z,101235.53
2023-05-13T07:53:52.034Z,101224.31
2023-05-13T07:56:19.917Z,101228.69
2023-05-13T07:58:47.437Z,101225.25
2023-05-13T08:01:14.892Z,101232.25
2023-05-13T08:03:42.687Z,101228.75
2023-05-13T08:06:10.633Z,101233.94
2023-05-13T08:08:38.284Z,101227.88
2023-05-13T08:11:05.997Z,101229.72
2023-05-13T08:13:33.918Z,101227.97
2023-05-13T08:16:11.466Z,101231.50
2023-05-13T08:18:39.980Z,101217.63
2023-05-13T08:21:19.795Z,101225.50
2023-05-13T08:23:48.293Z,101225.53
2023-05-13T08:26:16.596Z,101229.00
2023-05-13T08:28:44.373Z,101228.13
2023-05-13T08:31:13.154Z,101228.13
2023-05-13T08:33:46.106Z,101222.03
2023-05-13T08:36:14.147Z,101216.81
2023-05-13T08:38:43.445Z,101222.94
2023-05-13T08:41:14.437Z,101224.69
2023-05-13T08:43:45.331Z,101220.34
2023-05-13T08:46:13.142Z,101215.13
2023-05-13T08:48:41.003Z,101217.81
2023-05-13T08:51:09.398Z,101216.94
2023-05-13T08:53:37.852Z,101217.78
2023-05-13T08:56:07.507Z,101205.56
2023-05-13T08:58:35.151Z,101204.63
2023-05-13T09:01:04.499Z,101202.88
2023-05-13T09:03:31.526Z,101201.00
2023-05-13T09:06:01.533Z,101209.59
2023-05-13T09:08:29.277Z,101208.81
2023-05-13T09:10:57.298Z,101200.97
2023-05-13T09:13:25.169Z,101206.16
2023-05-13T09:15:53.140Z,101209.56
2023-05-13T09:18:20.690Z,101200.75
2023-05-13T09:20:48.310Z,101203.22
2023-05-13T09:23:16.144Z,101209.22
2023-05-13T09:25:44.291Z,101213.63
2023-05-13T09:28:11.401Z,101209.28
2023-05-13T09:30:40.598Z,101213.84
2023-05-13T09:33:08.247Z,101213.16
2023-05-13T09:35:40.278Z,101208.84
2023-05-13T09:38:20.512Z,101210.63
2023-05-13T09:40:58.173Z,101197.56
2023-05-13T09:43:28.366Z,101206.19
2023-05-13T09:45:56.719Z,101206.09
2023-05-13T09:48:25.904Z,101207.84
2023-05-13T09:50:53.928Z,101208.72
2023-05-13T09:53:21.792Z,101205.22
2023-05-13T09:55:49.809Z,101202.56
2023-05-13T09:58:17.628Z,101204.31
2023-05-13T10:00:45.888Z,101201.72
2023-05-13T10:03:14.342Z,101200.84
2023-05-13T10:05:42.233Z,101195.53
2023-05-13T10:08:13.504Z,101195.38
2023-05-13T10:10:41.586Z,101199.66
2023-05-13T10:13:14.270Z,101198.69
2023-05-13T10:16:11.491Z,101197.88
2023-05-13T10:18:38.967Z,101197.84
2023-05-13T10:21:06.979Z,101198.78
2023-05-13T10:23:34.167Z,101198.00
2023-05-13T10:26:01.818Z,101199.84
2023-05-13T10:28:29.818Z,101203.19
2023-05-13T10:30:58.166Z,101195.16
2023-05-13T10:33:25.246Z,101190.63
2023-05-13T10:36:04.162Z,101188.94
2023-05-13T10:38:37.141Z,101187.38
2023-05-13T10:41:10.835Z,101181.19
2023-05-13T10:43:38.853Z,101176.69
2023-05-13T10:46:08.006Z,101181.31
2023-05-13T10:48:43.428Z,101177.84
2023-05-13T10:51:14.558Z,101174.34
2023-05-13T10:53:49.525Z,101181.22
2023-05-13T10:56:17.396Z,101168.91
2023-05-13T10:58:45.042Z,101166.22
2023-05-13T11:01:13.544Z,101155.63
2023-05-13T11:03:40.678Z,101158.19
2023-05-13T11:06:13.862Z,101152.94
2023-05-13T11:08:42.892Z,101156.19
2023-05-13T11:11:22.653Z,101154.41
2023-05-13T11:14:11.649Z,101145.72
2023-05-13T11:16:39.677Z,101144.00
2023-05-13T11:19:10.275Z,101143.78
2023-05-13T11:21:57.453Z,101127.84
2023-05-13T11:24:25.563Z,101134.00
2023-05-13T11:26:56.420Z,101130.03
2023-05-13T11:29:30.301Z,101125.09
2023-05-13T11:32:00.258Z,101119.00
2023-05-13T11:34:28.364Z,101121.75
2023-05-13T11:37:04.812Z,101119.78
2023-05-13T11:39:32.755Z,101115.84
2023-05-13T11:42:04.234Z,101111.19
2023-05-13T11:44:31.776Z,101114.31
2023-05-13T11:47:01.017Z,101121.91
2023-05-13T11:49:44.154Z,101121.19
2023-05-13T11:52:10.955Z,101123.06
2023-05-13T11:54:55.214Z,101124.41
2023-05-13T11:57:24.888Z,101126.44
2023-05-13T12:00:02.111Z,101130.16
2023-05-13T12:02:31.436Z,101124.94
2023-05-13T12:05:05.155Z,101119.81
2023-05-13T12:07:32.805Z,101109.19
2023-05-13T12:10:06.300Z,101107.84
2023-05-13T12:12:34.739Z,101108.97
2023-05-13T12:15:11.064Z,101098.97
2023-05-13T12:17:38.553Z,101097.56
2023-05-13T12:20:13.025Z,101085.22
2023-05-13T12:22:43.201Z,101083.41
2023-05-13T12:25:37.745Z,101077.22
2023-05-13T12:28:32.458Z,101075.66
2023-05-13T12:31:04.431Z,101076.38
2023-05-13T12:33:34.324Z,101085.38
2023-05-13T12:36:26.200Z,101080.09
2023-05-13T12:38:59.592Z,101081.78
2023-05-13T12:41:29.260Z,101090.63
2023-05-13T12:43:59.011Z,101084.50
2023-05-13T12:46:26.261Z,101097.63
2023-05-13T12:49:16.582Z,101098.53
2023-05-13T12:51:44.860Z,101107.03
2023-05-13T12:54:12.823Z,101108.81
2023-05-13T12:56:40.715Z,101108.91
2023-05-13T12:59:08.886Z,101097.50
2023-05-13T13:01:37.244Z,101088.72
2023-05-13T13:04:05.430Z,101094.56
2023-05-13T13:09:35.908Z,101083.81
2023-05-13T13:12:04.026Z,101090.34
2023-05-13T13:14:31.886Z,101090.44
2023-05-13T13:16:59.771Z,101093.28
2023-05-13T13:19:27.829Z,101084.28
2023-05-13T13:21:55.383Z,101072.59
2023-05-13T13:24:23.190Z,101082.38
2023-05-13T13:26:50.850Z,101080.84
2023-05-13T13:29:18.422Z,101079.88
2023-05-13T13:31:46.941Z,101072.00
2023-05-13T13:34:14.791Z,101062.22
2023-05-13T13:36:42.333Z,101062.94
2023-05-13T13:39:09.879Z,101071.31
2023-05-13T13:41:38.327Z,101070.19
2023-05-13T13:44:06.469Z,101077.47
2023-05-13T13:46:34.583Z,101058.63
2023-05-13T13:49:07.733Z,101059.03
2023-05-13T13:51:44.528Z,101061.38
2023-05-13T13:54:12.484Z,101053.81
2023-05-13T13:56:40.003Z,101061.25
2023-05-13T13:59:07.976Z,101053.41
2023-05-13T14:01:35.913Z,101055.25
2023-05-13T14:04:14.735Z,101049.22
2023-05-13T14:06:42.496Z,101051.50
2023-05-13T14:09:10.944Z,101041.00
2023-05-13T14:11:38.051Z,101046.47
2023-05-13T14:14:05.570Z,101046.72
2023-05-13T14:16:33.006Z,101052.19
2023-05-13T14:19:00.519Z,101052.31
2023-05-13T14:21:28.506Z,101042.41
2023-05-13T14:23:55.935Z,101051.84
2023-05-13T14:26:23.823Z,101056.34
2023-05-13T14:28:51.274Z,101060.84
2023-05-13T14:31:19.128Z,101066.31
2023-05-13T14:33:46.709Z,101063.50
2023-05-13T14:36:16.325Z,101069.94
2023-05-13T14:39:03.373Z,101072.66
2023-05-13T14:41:31.214Z,101066.69
2023-05-13T14:43:59.459Z,101069.97
2023-05-13T14:46:27.789Z,101072.13
2023-05-13T14:48:55.807Z,101074.19
2023-05-13T14:51:23.901Z,101084.06
2023-05-13T14:53:51.815Z,101082.56
2023-05-13T14:56:19.664Z,101088.81
2023-05-13T14:58:47.959Z,101089.75
2023-05-13T15:01:15.729Z,101093.25
2023-05-13T15:03:43.849Z,101098.50
2023-05-13T15:06:11.816Z,101084.56
2023-05-13T15:08:39.782Z,101087.19
2023-05-13T15:11:08.402Z,101105.44
2023-05-13T15:13:36.894Z,101100.25
2023-05-13T15:16:05.134Z,101105.50
2023-05-13T15:18:33.220Z,101111.56
2023-05-13T15:21:00.701Z,101108.97
2023-05-13T15:23:28.623Z,101108.06
2023-05-13T15:25:56.652Z,101116.66
2023-05-13T15:28:25.092Z,101113.94
2023-05-13T15:30:54.145Z,101110.31
2023-05-13T15:33:38.557Z,101100.50
2023-05-13T15:36:19.625Z,101101.28
2023-05-13T15:38:47.214Z,101110.81
2023-05-13T15:41:14.675Z,101108.22
2023-05-13T15:43:42.453Z,101109.25
2023-05-13T15:46:10.436Z,101109.41
2023-05-13T15:48:38.298Z,101104.25
2023-05-13T15:51:07.221Z,101099.91
2023-05-13T15:53:51.384Z,101099.00
2023-05-13T15:56:21.872Z,101106.78
2023-05-13T15:58:50.455Z,101106.75
2023-05-13T16:01:18.084Z,101108.50
2023-05-13T16:03:47.620Z,101103.28
2023-05-13T16:06:15.237Z,101105.00
2023-05-13T16:08:43.310Z,101102.47
2023-05-13T16:11:13.030Z,101111.19
2023-05-13T16:13:40.931Z,101113.84
2023-05-13T16:16:14.673Z,101113.03
2023-05-13T16:18:43.255Z,101096.50
2023-05-13T16:21:11.246Z,101098.28
2023-05-13T16:23:39.127Z,101093.97
2023-05-13T16:26:08.608Z,101087.88
2023-05-13T16:28:45.415Z,101090.50
2023-05-13T16:31:15.951Z,101088.75
2023-05-13T16:33:44.711Z,101086.97
2023-05-13T16:36:24.452Z,101079.16
2023-05-13T16:38:52.002Z,101077.41
2023-05-13T16:41:20.012Z,101084.34
2023-05-13T16:43:47.576Z,101084.38
2023-05-13T16:46:17.485Z,101074.75
2023-05-13T16:48:45.599Z,101081.66
2023-05-13T16:51:16.409Z,101075.50
2023-05-13T16:53:44.417Z,101084.25
2023-05-13T16:56:12.344Z,101079.00
2023-05-13T16:58:40.278Z,101063.38
2023-05-13T17:01:09.214Z,101060.75
2023-05-13T17:03:41.196Z,101054.72
2023-05-13T17:06:33.666Z,101048.69
2023-05-13T17:09:01.957Z,101048.69
2023-05-13T17:11:29.805Z,101046.97
2023-05-13T17:13:57.344Z,101042.66
2023-05-13T17:16:24.828Z,101047.88
2023-05-13T17:18:53.515Z,101040.97
2023-05-13T17:21:21.851Z,101039.25
2023-05-13T17:23:49.510Z,101040.13
2023-05-13T17:26:23.327Z,101034.03
2023-05-13T17:28:51.884Z,101038.38
2023-05-13T17:31:25.898Z,101032.28
2023-05-13T17:33:53.908Z,101035.75
2023-05-13T17:36:22.244Z,101041.84
2023-05-13T17:38:50.339Z,101042.69
2023-05-13T17:41:17.951Z,101048.72
2023-05-13T17:43:47.392Z,101041.72
2023-05-13T17:46:15.662Z,101035.63
2023-05-13T17:48:43.434Z,101042.50
2023-05-13T17:51:11.634Z,101040.81
2023-05-13T17:53:39.136Z,101050.22
2023-05-13T17:56:11.320Z,101051.94
2023-05-13T17:58:38.965Z,101057.09
2023-05-13T18:01:06.481Z,101045.78
2023-05-13T18:03:34.998Z,101057.94
2023-05-13T18:06:02.508Z,101055.31
2023-05-13T18:08:30.484Z,101055.28
2023-05-13T18:10:58.360Z,101060.44
2023-05-13T18:13:26.628Z,101076.91
2023-05-13T18:15:54.230Z,101083.78
2023-05-13T18:18:22.150Z,101085.50
2023-05-13T18:20:49.632Z,101094.19
2023-05-13T18:23:18.258Z,101095.03
2023-05-13T18:25:54.945Z,101101.03
2023-05-13T18:28:23.832Z,101093.19
2023-05-13T18:30:51.281Z,101092.25
2023-05-13T18:33:21.823Z,101090.53
2023-05-13T18:35:48.688Z,101085.28
2023-05-13T18:38:16.720Z,101086.13
2023-05-13T18:40:44.320Z,101088.72
2023-05-13T18:43:12.376Z,101092.16
2023-05-13T18:45:40.349Z,101099.13
2023-05-13T18:48:08.425Z,101102.53
2023-05-13T18:50:36.389Z,101092.06
2023-05-13T18:53:04.320Z,101111.09
2023-05-13T18:55:31.883Z,101110.09
2023-05-13T18:58:00.269Z,101115.25
2023-05-13T19:00:28.112Z,101114.31
2023-05-13T19:02:56.384Z,101122.06
2023-05-13T19:05:24.612Z,101123.81
2023-05-13T19:07:52.897Z,101122.94
2023-05-13T19:10:21.548Z,101122.09
2023-05-13T19:12:49.657Z,101123.78
2023-05-13T19:15:21.002Z,101139.28
2023-05-13T19:17:48.489Z,101139.31
2023-05-13T19:20:17.504Z,101142.75
2023-05-13T19:22:45.366Z,101149.69
2023-05-13T19:25:13.273Z,101154.84
2023-05-13T19:27:41.170Z,101153.09
2023-05-13T19:30:11.593Z,101159.19
2023-05-13T19:32:39.566Z,101158.31
2023-05-13T19:35:09.805Z,101161.78
2023-05-13T19:37:37.456Z,101169.63
2023-05-13T19:40:05.873Z,101159.19
2023-05-13T19:42:33.407Z,101162.59
2023-05-13T19:45:00.990Z,101167.78
2023-05-13T19:47:30.921Z,101172.13
2023-05-13T19:49:58.747Z,101166.91
2023-05-13T19:52:26.707Z,101171.28
2023-05-13T19:54:55.046Z,101176.50
2023-05-13T19:57:22.656Z,101178.19
2023-05-13T19:59:50.574Z,101172.09
2023-05-13T20:02:18.603Z,101175.50
2023-05-13T20:04:46.649Z,101184.06
2023-05-13T20:07:14.635Z,101178.81
2023-05-13T20:09:42.657Z,101173.63
2023-05-13T20:12:10.595Z,101172.75
2023-05-13T20:14:46.158Z,101175.34
2023-05-13T20:17:18.347Z,101167.47
2023-05-13T20:19:47.486Z,101164.84
2023-05-13T20:22:16.531Z,101164.00
2023-05-13T20:24:44.222Z,101167.47
2023-05-13T20:27:12.169Z,101167.47
2023-05-13T20:29:42.640Z,101164.94
2023-05-13T20:32:10.186Z,101162.34
2023-05-13T20:34:38.262Z,101161.44
2023-05-13T20:37:05.848Z,101153.66
2023-05-13T20:39:33.862Z,101158.84
2023-05-13T20:42:02.011Z,101161.38
2023-05-13T20:44:29.901Z,101165.75
2023-05-13T20:46:57.397Z,101164.06
2023-05-13T20:49:25.438Z,101165.00
2023-05-13T20:51:53.421Z,101159.78
2023-05-13T20:54:21.361Z,101164.16
2023-05-13T20:56:49.297Z,101164.13
2023-05-13T20:59:16.713Z,101163.22
2023-05-13T21:01:47.468Z,101156.28
2023-05-13T21:04:15.351Z,101167.47
2023-05-13T21:06:43.535Z,101157.06
2023-05-13T21:09:11.061Z,101150.16
2023-05-13T21:11:39.007Z,101148.38
2023-05-13T21:14:07.013Z,101150.97
2023-05-13T21:16:36.044Z,101152.72
2023-05-13T21:19:03.650Z,101142.28
2023-05-13T21:21:32.202Z,101140.50
2023-05-13T21:26:40.950Z,101131.78
2023-05-13T21:29:09.374Z,101130.88
2023-05-13T21:31:37.444Z,101132.56
2023-05-13T21:34:05.445Z,101128.25
2023-05-13T21:36:33.911Z,101134.28
2023-05-13T21:39:01.764Z,101122.13
2023-05-13T21:41:29.565Z,101132.56
2023-05-13T21:43:57.615Z,101129.09
2023-05-13T21:46:25.894Z,101121.34
2023-05-13T21:48:53.928Z,101124.81
2023-05-13T21:51:21.078Z,101124.81
2023-05-13T21:53:48.624Z,101124.81
2023-05-13T21:56:18.790Z,101115.28
2023-05-13T21:58:46.688Z,101115.25
2023-05-13T22:01:14.263Z,101111.75
2023-05-13T22:03:42.135Z,101109.09
2023-05-13T22:06:10.156Z,101110.84
2023-05-13T22:08:38.050Z,101112.56
2023-05-13T22:11:05.594Z,101099.56
2023-05-13T22:13:33.450Z,101096.09
2023-05-13T22:16:01.357Z,101102.97
2023-05-13T22:18:29.263Z,101099.53
2023-05-13T22:20:58.808Z,101102.94
2023-05-13T22:23:26.729Z,101092.47
2023-05-13T22:25:55.027Z,101096.78
2023-05-13T22:44:00.962Z,101072.13
2023-05-13T22:50:54.138Z,101071.28
2023-05-13T22:53:41.269Z,101069.47
2023-05-13T22:56:13.384Z,101057.31
2023-05-13T22:58:45.557Z,101048.59
2023-05-13T23:01:14.015Z,101049.50
2023-05-13T23:03:43.821Z,101046.78
2023-05-13T23:12:51.683Z,101028.25
2023-05-13T23:15:45.090Z,101022.16
2023-05-13T23:39:42.369Z,101008.91
2023-05-13T23:42:34.372Z,101005.50
2023-05-13T23:45:08.423Z,100994.97
2023-05-13T23:53:42.214Z,100984.59
